Tiempo atmosférico en la estación meteorológica de Antequera, Málaga (400 m.)

Fecha
DESCASC
Temp. máxima en grados centígrados (hora)
DESCASC
Temp. mínima en grados centígrados (hora)
DESCASC
Temp. media en grados centígrados
DESCASC
Racha de viento máxima en m/sg (hora)
DESCASC
Velocidad máxima media en intervalos de 10 minutos(hora)
DESCASC
Precipitaciones diarias en mm
DESCASC
Precipitaciones de 00:00 a 06:00 en mm
DESCASC
Precipitaciones de 06:00 a 12:00 en mm
DESCASC
Precipitaciones de 12:00 a 18:00 en mm
DESCASC
Precipitaciones de 18:00 a 24:00 en mm
DESCASC
17-08-2017 38 (17:10) 20.6 (08:10) 29.3 11.11 (12:40) 6.11 (12:40) 0 0 0 0 0
16-08-2017 41.8 (17:20) 22.1 (07:50) 31.9 8.06 (15:20) 3.61 (17:40) 0 0 0 0 0
15-08-2017 38.1 (17:50) 22.3 (00:00) 30.2 8.06 (18:10) 4.17 (18:50) 0 0 0 0 0
14-08-2017 33 (18:20) 23.6 (06:10) 28.3 11.11 (13:20) 5.56 (05:00) 0 0 0 0 0
13-08-2017 32.1 (14:10) 22.1 (00:00) 27.1 13.33 (17:40) 7.22 (07:00) 0 0 0 0 0
12-08-2017 33.3 (14:50) 22.8 (00:00) 28 15.28 (15:00) 7.78 (16:00) 0 0 0 0 0
11-08-2017 32.8 (17:40) 23.5 (00:00) 28.1 11.11 (14:00) 6.39 (00:10) 0 0 0 0 0
10-08-2017 31.7 (13:10) 17.9 (00:00) 24.8 11.67 (23:10) 6.11 (14:30) 0 0 0 0 0
09-08-2017 36.6 (17:00) 18 (00:00) 27.3 8.61 (16:10) 4.17 (14:40) 0 0 0 0 0
08-08-2017 37.9 (18:20) 22.2 (00:00) 30.1 8.61 (17:50) 3.89 (15:20) 0 0 0 0 0
07-08-2017 40.1 (15:10) 25.9 (00:00) 33 10.28 (14:50) 5.83 (14:40) 0 0 0 0 0
06-08-2017 43.3 (18:20) 22.5 (00:00) 32.9 7.78 (15:40) 4.44 (19:10) 0 0 0 0 0
05-08-2017 43.2 (16:30) 24.2 (00:00) 33.7 10.56 (17:10) 5.28 (16:40) 0 0 0 0 0
04-08-2017 44.4 (17:40) 20.8 (00:00) 32.6 7.22 (18:40) 3.61 (18:20) 0 0 0 0 0
03-08-2017 42.4 (17:10) 19.4 (00:00) 30.9 6.39 (16:20) 3.06 (16:20) 0 0 0 0 0
02-08-2017 39.9 (17:30) 17.9 (00:00) 28.9 7.22 (19:30) 3.06 (20:20) 0 0 0 0 0
01-08-2017 34.9 (18:10) 18.9 (00:00) 26.9 8.06 (18:30) 3.89 (19:00) 0 0 0 0 0
31-07-2017 39.3 (17:00) 22.3 (00:00) 30.8 8.61 (20:00) 5 (20:00) 0 0 0 0 0
30-07-2017 42.2 (16:20) 21.3 (00:00) 31.8 8.33 (16:40) 3.61 (13:20) 0 0 0 0 0
29-07-2017 42.8 (16:00) 20 (00:00) 31.4 7.5 (18:30) 3.61 (20:00) 0 0 0 0 0
28-07-2017 42.9 (17:30) 20.8 (00:00) 31.9 7.22 (16:50) 3.33 (20:30) 0 0 0 0 0
27-07-2017 39.9 (16:30) 21.8 (00:00) 30.9 7.5 (17:10) 3.89 (19:10) 0 0 0 0 0
26-07-2017 38.7 (17:40) 22 (00:00) 30.4 6.39 (15:50) 2.22 (19:40) 0 0 0 0 0
25-07-2017 38.1 (18:10) 21.2 (00:00) 29.6 9.44 (17:20) 4.17 (14:50) 0 0 0 0 0
24-07-2017 40 (17:10) 19 (00:00) 29.5 8.06 (17:50) 3.61 (19:00) 0 0 0 0 0
23-07-2017 39.2 (17:30) 19.8 (00:00) 29.5 6.39 (18:30) 3.06 (19:50) 0 0 0 0 0
22-07-2017 37.7 (18:20) 16.4 (00:00) 27.1 7.78 (19:00) 3.33 (19:00) 0 0 0 0 0
21-07-2017 33.4 (18:10) 17.9 (00:00) 25.7 8.89 (18:20) 3.89 (18:30) 0 0 0 0 0
20-07-2017 35.1 (17:20) 19.8 (00:00) 27.4 8.33 (19:40) 4.72 (19:40) 0 0 0 0 0
19-07-2017 37.2 (17:00) 22.7 (00:00) 30 12.78 (00:20) 5.28 (01:10) 0 0 0 0 0

Gráficas

Temp. máximas Temp. mínimas Temp. medias Precipitaciones Rachas de viento máximas Velocidades máximas media en intervalos de 10 minutos

Datos horarios

Fecha y hora oficial Temperatura (ºC) Velocidad del viento (km/h) Dirección del viento Racha (km/h) Dirección de racha Precipitación (mm) Presión (hPa) Tendencia (hPa) Humedad (%)
2017-08-17 23:00:00 29.5 0 Calma 25 Sur 0 969.6 1.3 57
2017-08-17 22:00:00 30.5 10 Sur 29 Sudeste 0 969.1 0.8 56
2017-08-17 21:00:00 31.9 12 Sur 30 Sur 0 968.8 0.2 52
2017-08-17 20:00:00 34.2 16 Sudeste 33 Sudeste 0 968.3 -0.6 48
2017-08-17 19:00:00 36.6 13 Sudeste 30 Sudeste 0 968.3 -1.2 43
2017-08-17 18:00:00 37.4 14 Sudeste 30 Sudeste 0 968.6 -1.4 42
2017-08-17 17:00:00 37.8 14 Sudeste 30 Sudeste 0 968.9 -1.7 41
2017-08-17 16:00:00 36.8 15 Sudeste 32 Sudeste 0 969.5 -1.2 44
2017-08-17 15:00:00 37.1 15 Sudeste 29 Sudeste 0 970 -0.9 45
2017-08-17 14:00:00 35.5 17 Sudeste 35 Sudeste 0 970.6 0 47
2017-08-17 13:00:00 33.9 21 Sudeste 40 Sudeste 0 970.7 0.3 54
2017-08-17 12:00:00 32.2 19 Sur 37 Sur 0 970.9 0.5 60
2017-08-17 11:00:00 32.1 13 Sudeste 26 Sur 0 970.6 0.5 57
2017-08-17 10:00:00 28.6 2 Sudoeste 9 Sudoeste 0 970.4 0.6 68
2017-08-17 09:00:00 23.9 0 Calma 3 Sur 0 970.4 0.7 82
2017-08-17 08:00:00 22.4 3 Noroeste 8 Noroeste 0 970.1 0.5 94
2017-08-17 07:00:00 22.4 2 Norte 6 Sur 0 969.8 0 94
2017-08-17 06:00:00 23.2 0 Calma 6 Sur 0 969.7 -0.5 96
2017-08-17 05:00:00 23.9 0 Calma 6 Sur 0 969.6 -0.7 93
2017-08-17 04:00:00 24.8 0 Calma 6 Sur 0 969.8 -0.3 86
2017-08-17 03:00:00 25.6 0 Calma 7 Norte 0 970.2 0.3 77
2017-08-17 02:00:00 26.5 0 Calma 7 Norte 0 970.3 0.2 64
2017-08-17 01:00:00 28.2 5 Noroeste 10 Noroeste 0 970.1 0.3 63
2017-08-17 00:00:00 29.8 0 Calma 8 Sur 0 969.9 0.7 48
2017-08-16 23:00:00 31.6 0 Calma 5 Sur 0 970.1 1.2 36
2017-08-16 22:00:00 33.1 0 Calma 10 Noroeste 0 969.8 1.3 23
2017-08-16 21:00:00 36.7 5 Noroeste 22 Noroeste 0 969.2 0.4 23
2017-08-16 20:00:00 39.7 10 Noroeste 21 Noroeste 0 968.9 -0.2 23
2017-08-16 19:00:00 40.6 8 Noroeste 23 Noroeste 0 968.5 -0.8 23
2017-08-16 18:00:00 40.6 6 Norte 28 Noroeste 0 968.8 -1.1 23
2017-08-16 17:00:00 41.1 8 Noroeste 27 Sur 0 969.1 -1.5 24
2017-08-16 16:00:00 40.6 6 Noroeste 29 Noroeste 0 969.3 -1.7 24
2017-08-16 15:00:00 39.9 0 Calma 14 Noroeste 0 969.9 -1.6 26
2017-08-16 14:00:00 38.1 0 Calma 15 Noroeste 0 970.6 -0.9 29
2017-08-16 13:00:00 37.2 0 Calma 10 Noroeste 0 971 -0.4 34
2017-08-16 12:00:00 34.7 0 Calma 9 Sur 0 971.5 -0.2 43
2017-08-16 11:00:00 31.6 3 Sudeste 9 Sudeste 0 971.5 0.3 54
2017-08-16 10:00:00 27.6 0 Calma 5 Sur 0 971.4 0.6 74
2017-08-16 09:00:00 23.7 0 Calma 5 Noroeste 0 971.7 1.1 84
2017-08-16 08:00:00 22.3 0 Calma 4 Noroeste 0 971.2 0.6 95
2017-08-16 07:00:00 22.9 0 Calma 0 Calma 0 970.8 0.1 93
2017-08-16 06:00:00 23.8 0 Calma 0 Calma 0 970.6 -0.3 92
2017-08-16 05:00:00 24.6 0 Calma 3 Noroeste 0 970.6 -0.5 90
2017-08-16 04:00:00 25.6 3 Noroeste 5 Sur 0 970.7 -0.3 86
2017-08-16 03:00:00 26.2 0 Calma 12 Sur 0 970.9 0.2 81
2017-08-16 02:00:00 27 3 Oeste 9 Sudoeste 0 971.1 0.8 77
2017-08-16 01:00:00 28.1 0 Calma 8 Sur 0 971 1.3 73
2017-08-16 00:00:00 28.9 0 Calma 9 Sur 0 970.7 1.6 69
2017-08-15 23:00:00 30 2 Sudoeste 10 Sudoeste 0 970.3 1.9 63
2017-08-15 22:00:00 31 3 Sudoeste 10 Sur 0 969.7 1.3 57
2017-08-15 21:00:00 33.2 4 Sur 19 Sur 0 969.1 0.9 51
2017-08-15 20:00:00 35.4 5 Sur 21 Sur 0 968.4 -0.1 46
2017-08-15 19:00:00 35.7 12 Sudeste 29 Sudeste 0 968.4 -0.4 45
2017-08-15 18:00:00 37.5 13 Sudeste 27 Sur 0 968.2 -0.9 42
2017-08-15 17:00:00 37.3 8 Sur 26 Sur 0 968.5 -1.2 42
2017-08-15 16:00:00 37.1 6 Sur 23 Sudeste 0 968.8 -1.2 42
2017-08-15 15:00:00 36.2 5 Sudeste 21 Sudeste 0 969.1 -1 45
2017-08-15 14:00:00 34.8 4 Sudoeste 14 Sur 0 969.7 -0.3 46
2017-08-15 13:00:00 34.4 5 Nordeste 14 Nordeste 0 970 0 48
2017-08-15 12:00:00 32.4 2 Este 11 Este 0 970.1 0 54
2017-08-15 11:00:00 29.1 0 Calma 6 Sur 0 970 0.3 68
2017-08-15 10:00:00 26.8 0 Calma 5 Sur 0 970 1 81
2017-08-15 09:00:00 23.9 0 Calma 7 Noroeste 0 970.1 1.4 94
2017-08-15 08:00:00 22.5 0 Calma 6 Noroeste 0 969.7 1 97
2017-08-15 07:00:00 22.6 0 Calma 4 Noroeste 0 969 0.1 97
2017-08-15 06:00:00 23.6 0 Calma 4 Noroeste 0 968.7 -0.4 93
2017-08-15 05:00:00 24.2 0 Calma 6 Sur 0 968.7 -0.7 92
2017-08-15 04:00:00 24.6 3 Sudeste 10 Sudoeste 0 968.9 -0.5 91
2017-08-15 03:00:00 25.2 3 Sur 13 Sur 0 969.1 0.2 88
2017-08-15 02:00:00 25.5 5 Sudeste 27 Sudeste 0 969.4 0.8 85
2017-08-15 01:00:00 26 8 Sur 25 Sur 0 969.4 1.6 81
2017-08-15 00:00:00 26.1 12 Sur 30 Sur 0 968.9 2.2 79
2017-08-14 23:00:00 26.2 12 Sudeste 31 Sur 0 968.6 1.9 75
2017-08-14 22:00:00 26.6 15 Sur 36 Sudeste 0 967.8 1.5 78
2017-08-14 21:00:00 27.8 14 Sur 28 Sudeste 0 966.7 0.2 68
2017-08-14 20:00:00 30.2 13 Sur 30 Sudeste 0 966.7 -0.2 56
2017-08-14 19:00:00 32.3 8 Sur 22 Sur 0 966.3 -0.8 49
2017-08-14 18:00:00 32.7 12 Sur 39 Sur 0 966.5 -0.6 49
2017-08-14 17:00:00 31.9 14 Sur 38 Sur 0 966.9 -1 47
2017-08-14 16:00:00 31.3 17 Sur 39 Sur 0 967.1 -1.1 46
2017-08-14 15:00:00 31.7 15 Sur 37 Sudeste 0 967.1 -1 46
2017-08-14 14:00:00 30.5 11 Sur 40 Sudeste 0 967.9 0.1 51
2017-08-14 13:00:00 29.3 18 Sur 35 Sur 0 968.2 0.4 55
2017-08-14 12:00:00 28.7 17 Sudeste 37 Sudeste 0 968.1 0.7 56
2017-08-14 11:00:00 27 13 Sudeste 39 Sur 0 967.8 0.5 67
2017-08-14 10:00:00 25.9 15 Sudeste 34 Sudeste 0 967.8 0.7 76
2017-08-14 09:00:00 25.1 17 Sudeste 34 Sudeste 0 967.4 0.7 83
2017-08-14 08:00:00 24.1 13 Sudeste 38 Sudeste 0 967.3 0 87
2017-08-14 07:00:00 23.6 13 Sudeste 32 Sudeste 0 967.1 -0.5 93
2017-08-14 06:00:00 23.8 18 Sur 32 Sudeste 0 966.7 -1.3 93
2017-08-14 05:00:00 24.3 20 Sudeste 32 Sur 0 967.3 -0.9 89
2017-08-14 04:00:00 24.4 10 Sudeste 33 Sudeste 0 967.6 -1 87
2017-08-14 03:00:00 24.9 7 Sudeste 28 Sur 0 968 -0.5 83
2017-08-14 02:00:00 24.6 11 Sur 25 Sur 0 968.2 -0.2 86
2017-08-14 01:00:00 24.6 12 Sur 29 Sudeste 0 968.6 0.6 84
2017-08-14 00:00:00 24.2 13 Sudeste 26 Sudeste 0 968.5 1.4 85
2017-08-13 23:00:00 24.9 9 Sudeste 27 Sur 0 968.4 1.6 74
2017-08-13 22:00:00 25.8 7 Sur 35 Sur 0 968 1.6 69
2017-08-13 21:00:00 27 13 Sudeste 33 Sudeste 0 967.1 0.7 68
2017-08-13 20:00:00 28.8 5 Sudoeste 32 Sudoeste 0 966.8 0 63
2017-08-13 19:00:00 29.5 11 Sur 42 Sur 0 966.4 -1 58
2017-08-13 18:00:00 30.4 17 Sur 48 Sur 0 966.4 -1.6 52
2017-08-13 17:00:00 31.5 19 Sur 47 Sur 0 966.8 -1.7 47
2017-08-13 16:00:00 31.2 17 Sur 41 Sur 0 967.4 -1.6 49
2017-08-13 15:00:00 30.9 13 Sur 34 Este 0 968 -1.2 53
2017-08-13 14:00:00 31.3 16 Sudeste 40 Sudeste 0 968.5 -1.1 50
2017-08-13 13:00:00 29.8 19 Sur 37 Sudeste 0 969 -0.4 56
2017-08-13 12:00:00 28.4 19 Sudeste 40 Sudeste 0 969.2 -0.1 62
2017-08-13 11:00:00 27.1 18 Sudeste 39 Sudeste 0 969.6 0.7 69
2017-08-13 10:00:00 26 12 Sudeste 26 Sudeste 0 969.4 1 71
2017-08-13 09:00:00 24 12 Sudeste 28 Sudeste 0 969.3 0.3 85
2017-08-13 08:00:00 22.4 18 Sudeste 39 Sudeste 0 968.9 -0.4 94
2017-08-13 07:00:00 22.4 26 Sudeste 39 Este 0 968.4 -1.2 93
2017-08-13 06:00:00 22.7 11 Sur 28 Sur 0 969 -1 90
2017-08-13 05:00:00 22.9 9 Sudeste 28 Sudeste 0 969.3 -0.8 88
2017-08-13 04:00:00 23.2 8 Sudeste 26 Sur 0 969.6 -0.6 87
2017-08-13 03:00:00 23.7 12 Sudeste 33 Sur 0 970 -0.2 84
2017-08-13 02:00:00 23.9 16 Sur 39 Sur 0 970.1 0.1 82
2017-08-13 01:00:00 24.5 9 Sur 22 Sur 0 970.2 0.4 72
2017-08-13 00:00:00 25.2 0 Calma 19 Sur 0 970.2 0.4 62
2017-08-12 23:00:00 26.2 4 Sur 24 Sur 0 970 0.1 60
2017-08-12 22:00:00 26.3 5 Sudoeste 24 Sudeste 0 969.8 -0.1 57
2017-08-12 21:00:00 27.6 9 Sur 27 Sudeste 0 969.8 -0.2 54
2017-08-12 20:00:00 28.6 12 Sur 42 Sudeste 0 969.9 -0.2 56
2017-08-12 19:00:00 29.3 19 Sudeste 43 Sudeste 0 969.9 -0.5 54
2017-08-12 18:00:00 29.8 21 Sur 50 Sudeste 0 970 -0.8 49
2017-08-12 17:00:00 30.4 24 Sur 53 Sur 0 970.1 -1.1 42
2017-08-12 16:00:00 31.1 28 Sur 52 Sur 0 970.4 -0.9 37
2017-08-12 15:00:00 32.3 26 Sur 55 Sur 0 970.8 -0.7 34
2017-08-12 14:00:00 32.2 17 Sur 40 Sudeste 0 971.2 -0.3 40
2017-08-12 13:00:00 31.3 15 Sur 39 Sur 0 971.3 -0.5 45
2017-08-12 12:00:00 28.9 17 Sudeste 37 Sur 0 971.5 -0.1 55
2017-08-12 11:00:00 27.8 15 Sudeste 34 Sudeste 0 971.5 0.3 61
2017-08-12 10:00:00 25.7 10 Sudeste 31 Sur 0 971.8 0.9 73
2017-08-12 09:00:00 23.9 13 Sudeste 28 Sudeste 0 971.6 0.9 85
2017-08-12 08:00:00 23.1 17 Sudeste 31 Sudeste 0 971.2 0.9 92
2017-08-12 07:00:00 22.9 5 Sur 29 Sudeste 0 970.9 0.3 92
2017-08-12 06:00:00 23.4 11 Sudeste 26 Sur 0 970.7 0.1 86
2017-08-12 05:00:00 23.8 9 Sur 27 Sudeste 0 970.3 -0.5 76
2017-08-12 04:00:00 24.4 9 Sur 24 Sur 0 970.6 -0.2 67
2017-08-12 03:00:00 25 12 Sur 29 Sudeste 0 970.6 -0.1 59
2017-08-12 02:00:00 25.5 11 Sur 34 Sudeste 0 970.8 0.1 55
2017-08-12 01:00:00 25.2 18 Sur 33 Sur 0 970.8 0.8 64
2017-08-12 00:00:00 25.3 19 Sur 35 Sur 0 970.7 1.5 64
2017-08-11 23:00:00 25.9 16 Sudeste 34 Sur 0 970.7 1.7 56
2017-08-11 22:00:00 27 14 Sur 33 Sudeste 0 970 0.9 50
2017-08-11 21:00:00 28.8 15 Sudeste 28 Sudeste 0 969.2 -0.2 46
2017-08-11 20:00:00 30.4 15 Sudeste 32 Sudeste 0 969 -0.9 45
2017-08-11 19:00:00 31.6 15 Sudeste 33 Este 0 969.1 -1.2 45
2017-08-11 18:00:00 32 14 Sur 35 Sur 0 969.4 -1.1 45
2017-08-11 17:00:00 31.7 15 Sur 39 Sur 0 969.9 -1.2 47
2017-08-11 16:00:00 31.7 17 Sur 38 Sudeste 0 970.3 -1.3 50
2017-08-11 15:00:00 30.9 17 Sur 39 Sudeste 0 970.5 -1.5 53
2017-08-11 14:00:00 30.6 17 Sur 40 Sur 0 971.1 -1 55
2017-08-11 13:00:00 30.1 13 Sudeste 37 Sudeste 0 971.6 -0.1 57
2017-08-11 12:00:00 28 18 Sudeste 34 Sur 0 972 0.3 67
2017-08-11 11:00:00 26.2 12 Sudeste 33 Sudeste 0 972.1 0.7 77
2017-08-11 10:00:00 25.3 14 Sudeste 30 Este 0 971.7 0.5 84
2017-08-11 09:00:00 24.6 12 Sudeste 28 Sudeste 0 971.7 0.9 88
2017-08-11 08:00:00 23.7 8 Sudeste 19 Sur 0 971.4 0.2 89
2017-08-11 07:00:00 23.9 6 Sur 29 Sur 0 971.2 -0.2 88
2017-08-11 06:00:00 23.9 15 Sur 33 Sur 0 970.8 -0.9 88
2017-08-11 05:00:00 23.6 17 Sur 31 Sur 0 971.2 -1 92
2017-08-11 04:00:00 23.9 14 Sudeste 32 Sur 0 971.4 -0.8 92
2017-08-11 03:00:00 23.9 15 Sudeste 32 Sudeste 0 971.7 -0.2 92
2017-08-11 02:00:00 23.8 19 Sudeste -- -- -- 972.2 0.7 92
2017-08-11 01:00:00 24.3 15 Sur 39 Sudeste 0 972.2 1.2 91
2017-08-11 00:00:00 24.7 19 Sudeste 42 Sudeste 0 971.9 1.2 87
2017-08-10 23:00:00 24.6 21 Sur 39 Sur 0 971.5 1.1 89
2017-08-10 22:00:00 25.8 10 Sur 30 Sur 0 971 0.5 78
2017-08-10 21:00:00 26.9 13 Sur 34 Sudeste 0 970.7 0.2 76
2017-08-10 20:00:00 28.2 17 Sur 39 Sur 0 970.4 -0.1 72
2017-08-10 19:00:00 29.6 16 Sur 37 Sudeste 0 970.5 -0.2 67
2017-08-10 18:00:00 30 17 Sudeste 37 Sudeste 0 970.5 -0.5 65
2017-08-10 17:00:00 30.8 20 Sur 39 Sur 0 970.5 -0.7 63
2017-08-10 16:00:00 31.3 17 Sur 39 Sudeste 0 970.7 -0.4 62
2017-08-10 15:00:00 31 21 Sur 41 Sur 0 971 0.1 63
2017-08-10 14:00:00 30.9 21 Sudeste 41 Sudeste 0 971.2 0.7 63
2017-08-10 13:00:00 31.5 17 Sudeste 36 Sur 0 971.1 0.9 64
2017-08-10 12:00:00 30.3 13 Sur 28 Sur 0 970.9 0.8 64
2017-08-10 11:00:00 29.2 2 Norte 9 Nordeste 0 970.5 0.9 54
2017-08-10 10:00:00 25.9 0 Calma 5 Sudeste 0 970.2 1.1 53
2017-08-10 09:00:00 22.1 0 Calma 9 Oeste 0 970.1 1.4 59
2017-08-10 08:00:00 19.8 0 Calma 8 Nordeste 0 969.6 1.3 59
2017-08-10 07:00:00 18.9 0 Calma 8 Nordeste 0 969.1 1 56
2017-08-10 06:00:00 18.3 0 Calma 5 Sur 0 968.7 0.5 55
2017-08-10 05:00:00 19.8 0 Calma 5 Norte 0 968.3 -0.2 52
2017-08-10 04:00:00 21.3 0 Calma 8 Nordeste 0 968.1 0 51
2017-08-10 03:00:00 22.2 0 Calma 10 Norte 0 968.2 0.3 51
2017-08-10 02:00:00 24 4 Nordeste 10 Nordeste 0 968.5 0.9 49
2017-08-10 01:00:00 24.2 5 Nordeste 9 Norte 0 968.1 1.4 48
2017-08-10 00:00:00 25.4 0 Calma 6 Noroeste 0 967.9 1.7 44
2017-08-09 23:00:00 26.7 4 Oeste 12 Oeste 0 967.6 2.1 40
2017-08-09 22:00:00 28.6 5 Oeste 15 Oeste 0 966.7 1.2 34
2017-08-09 21:00:00 31.2 9 Oeste 23 Noroeste 0 966.2 0.5 33
2017-08-09 20:00:00 33 13 Oeste 27 Noroeste 0 965.5 -0.3 32
2017-08-09 19:00:00 35 14 Noroeste 28 Oeste 0 965.5 -0.8 30
2017-08-09 18:00:00 35.9 11 Noroeste 28 Oeste 0 965.7 -0.8 27
2017-08-09 17:00:00 35.9 12 Noroeste 31 Noroeste 0 965.8 -0.9 28
2017-08-09 16:00:00 35.7 12 Noroeste 29 Noroeste 0 966.3 -0.9 30
2017-08-09 15:00:00 35.5 8 Noroeste 28 Noroeste 0 966.5 -0.9 30
2017-08-09 14:00:00 35.8 5 Oeste 19 Oeste 0 966.7 -1 26
2017-08-09 13:00:00 34.4 6 Oeste 23 Sudoeste 0 967.2 -0.7 29
2017-08-09 12:00:00 32.3 2 Noroeste 10 Oeste 0 967.4 -0.3 35
2017-08-09 11:00:00 28.8 0 Calma 10 Sur 0 967.7 0.2 40
2017-08-09 10:00:00 25.3 0 Calma 5 Este 0 967.9 0.8 44
2017-08-09 09:00:00 21.5 0 Calma 4 Sur 0 967.7 0.6 47
2017-08-09 08:00:00 18.9 0 Calma 5 Sur 0 967.5 0.6 50
2017-08-09 07:00:00 18.6 0 Calma 11 Nordeste 0 967.1 0.2 48
2017-08-09 06:00:00 19.6 0 Calma 3 Sur 0 967.1 0.3 46
2017-08-09 05:00:00 21.5 0 Calma 3 Nordeste 0 966.9 -0.1 44
2017-08-09 04:00:00 21.6 0 Calma 3 Oeste 0 966.9 -0.1 43
2017-08-09 03:00:00 23.8 0 Calma 8 Norte 0 966.8 -0.4 40
2017-08-09 02:00:00 24.9 0 Calma 5 Oeste 0 967 0 39
2017-08-09 01:00:00 25.8 0 Calma 16 Oeste 0 967 0.6 36
2017-08-09 00:00:00 27.5 0 Calma 11 Norte 0 967.2 1.7 33
2017-08-08 23:00:00 29.4 3 Noroeste 10 Noroeste 0 967 1.5 29
2017-08-08 22:00:00 31.5 3 Noroeste 13 Noroeste 0 966.4 0.6 27
2017-08-08 21:00:00 34.4 7 Noroeste 23 Noroeste 0 965.5 -0.6 25
2017-08-08 20:00:00 36.6 12 Oeste 22 Noroeste 0 965.5 -0.8 24
2017-08-08 19:00:00 37 12 Noroeste 28 Noroeste 0 965.8 -1 23
2017-08-08 18:00:00 37.3 10 Noroeste 31 Noroeste 0 966.1 -0.9 23
2017-08-08 17:00:00 37 12 Noroeste 31 Noroeste 0 966.3 -1.1 24
2017-08-08 16:00:00 36 10 Noroeste 28 Noroeste 0 966.8 -0.7 25
2017-08-08 15:00:00 36 9 Noroeste 28 Norte 0 967 -0.5 26
2017-08-08 14:00:00 34.7 10 Noroeste 22 Oeste 0 967.4 0.2 27
2017-08-08 13:00:00 33.2 3 Norte 20 Noroeste 0 967.5 0.3 35
2017-08-08 12:00:00 31.2 6 Noroeste 13 Noroeste 0 967.5 0.5 38
2017-08-08 11:00:00 30.4 2 Nordeste 8 Nordeste 0 967.2 0.5 44
2017-08-08 10:00:00 27.9 2 Nordeste 8 Sudeste 0 967.2 0.9 57
2017-08-08 09:00:00 25.3 0 Calma 3 Sudeste 0 967 1 64
2017-08-08 08:00:00 22.9 0 Calma 6 Nordeste 0 966.7 0.7 71
2017-08-08 07:00:00 25.3 4 Noroeste 7 Noroeste 0 966.3 0.2 53
2017-08-08 06:00:00 25.3 0 Calma 6 Nordeste 0 966 -0.2 60
2017-08-08 05:00:00 25.7 0 Calma 6 Norte 0 966 -0.8 75
2017-08-08 04:00:00 27.5 0 Calma 10 Noroeste 0 966.1 -0.8 74
2017-08-08 03:00:00 27.8 0 Calma 5 Sur 0 966.2 -0.6 75
2017-08-08 02:00:00 29.2 0 Calma 13 Noroeste 0 966.8 0 69
2017-08-08 01:00:00 30.1 5 Noroeste 9 Noroeste 0 966.9 1.2 66
2017-08-08 00:00:00 31 0 Calma 8 Sudoeste 0 966.8 1.7 64
2017-08-07 23:00:00 32.9 0 Calma 6 Oeste 0 966.8 1.8 57
2017-08-07 22:00:00 34.1 3 Sur 9 Sur 0 965.7 0.5 52
2017-08-07 21:00:00 36.9 2 Sur 14 Sur 0 965.1 -0.5 46
2017-08-07 20:00:00 38.9 6 Sur 24 Sudeste 0 965 -1 42
2017-08-07 19:00:00 39.3 12 Sur 26 Sudeste 0 965.2 -1 41
2017-08-07 18:00:00 39 17 Sudeste 29 Sudeste 0 965.6 -0.8 42
2017-08-07 17:00:00 39.1 12 Sudeste 36 Sudeste 0 966 -0.7 42
2017-08-07 16:00:00 39.4 17 Sudeste 32 Sudeste 0 966.2 -1.1 42
2017-08-07 15:00:00 39.6 14 Sudeste 37 Sudeste 0 966.4 -1.5 42
2017-08-07 14:00:00 38.4 18 Sudeste 35 Sudeste 0 966.7 -1.2 43
2017-08-07 13:00:00 38 14 Sudeste 27 Sudeste 0 967.3 -0.8 43
2017-08-07 12:00:00 35.3 8 Sudeste 23 Sur 0 967.9 0.3 48
2017-08-07 11:00:00 33 5 Sur 13 Sur 0 967.9 0.1 57
2017-08-07 10:00:00 30.1 5 Noroeste 10 Oeste 0 968.1 0.6 69
2017-08-07 09:00:00 28.1 0 Calma 6 Noroeste 0 967.6 0.7 74
2017-08-07 08:00:00 26.2 0 Calma 9 Oeste 0 967.8 0.8 80
2017-08-07 07:00:00 26.4 0 Calma 16 Noroeste 0 967.5 -0.6 79
2017-08-07 06:00:00 27.3 0 Calma 24 Noroeste 0 966.9 -1.3 71
2017-08-07 05:00:00 28.3 3 Oeste 26 Sudeste 0 967 -1.2 65
2017-08-07 04:00:00 28 0 Calma 15 Noroeste 0 968.1 -0.2 60
2017-08-07 03:00:00 28.2 0 Calma 14 Oeste 0 968.2 0 51
2017-08-07 02:00:00 28.1 3 Oeste 9 Sudoeste 0 968.2 0.3 49
2017-08-07 01:00:00 29.7 0 Calma 10 Oeste 0 968.3 1.1 45
2017-08-07 00:00:00 30.8 4 Oeste 10 Sur 0 968.2 1.5 43
2017-08-06 23:00:00 31.7 0 Calma 18 Sur 0 967.9 1.7 41
2017-08-06 22:00:00 33.7 9 Sur 22 Sur 0 967.2 1.3 38
2017-08-06 21:00:00 34.8 13 Sur 28 Sur 0 966.7 1.1 36
2017-08-06 20:00:00 38.7 13 Sur 27 Este 0 966.2 0.4 34
2017-08-06 19:00:00 41.1 13 Sur 26 Sudeste 0 965.9 -0.3 31
2017-08-06 18:00:00 43 5 Sur 27 Sur 0 965.6 -1.1 31
2017-08-06 17:00:00 42.5 11 Sur 27 Este 0 965.8 -1.3 31
2017-08-06 16:00:00 42.9 11 Sudeste 28 Sudeste 0 966.2 -1.2 32
2017-08-06 15:00:00 42 5 Sudeste 23 Sur 0 966.7 -1.1 33
2017-08-06 14:00:00 41.6 2 Sur 15 Sur 0 967.1 -0.7 34
2017-08-06 13:00:00 40 4 Sudeste 12 Sudeste 0 967.4 -0.5 36
2017-08-06 12:00:00 37.5 0 Calma 7 Este 0 967.8 0 39
2017-08-06 11:00:00 34 2 Este 8 Norte 0 967.8 0.5 44
2017-08-06 10:00:00 30 2 Sudeste 7 Este 0 967.9 1 46
2017-08-06 09:00:00 26.1 0 Calma 6 Oeste 0 967.8 0.9 49
2017-08-06 08:00:00 23.1 0 Calma 3 Nordeste 0 967.3 0.7 51
2017-08-06 07:00:00 23.2 0 Calma 5 Norte 0 966.9 0.2 50
2017-08-06 06:00:00 24.2 0 Calma 4 Norte 0 966.9 0.1 49
2017-08-06 05:00:00 26.5 0 Calma 2 Oeste 0 966.6 -0.6 47
2017-08-06 04:00:00 26.9 0 Calma 6 Nordeste 0 966.7 -0.7 44
2017-08-06 03:00:00 27.7 0 Calma 7 Nordeste 0 966.8 -0.7 43
2017-08-06 02:00:00 29.7 0 Calma 7 Oeste 0 967.2 0.1 40
2017-08-06 01:00:00 30.7 0 Calma 5 Sudoeste 0 967.4 1.2 39
2017-08-06 00:00:00 31.5 2 Oeste 6 Oeste 0 967.5 1.7 38
2017-08-05 23:00:00 32.5 0 Calma 10 Sudoeste 0 967.1 1.7 36
2017-08-05 22:00:00 34.5 3 Sudoeste 9 Sudoeste 0 966.2 0.9 35
2017-08-05 21:00:00 37 3 Sur 23 Sur 0 965.8 0.6 32
2017-08-05 20:00:00 39.1 13 Sur 29 Sudeste 0 965.4 0 30
2017-08-05 19:00:00 41.1 14 Sudeste 31 Sudeste 0 965.3 -0.8 30
2017-08-05 18:00:00 41.8 18 Sudeste 38 Sudeste 0 965.2 -1.5 29
2017-08-05 17:00:00 43 17 Sudeste 36 Sudeste 0 965.4 -1.8 28
2017-08-05 16:00:00 42.8 14 Sur 35 Sudeste 0 966.1 -1.5 29
2017-08-05 15:00:00 41.9 14 Sudeste 36 Este 0 966.7 -1.1 29
2017-08-05 14:00:00 41.8 14 Sur 29 Sudeste 0 967.2 -0.4 31
2017-08-05 13:00:00 40.1 15 Sur 29 Sur 0 967.6 0 32
2017-08-05 12:00:00 39.4 15 Sudeste 30 Sur 0 967.8 0.4 33
2017-08-05 11:00:00 38.2 10 Sudeste 24 Sudeste 0 967.6 0.6 37
2017-08-05 10:00:00 31.7 0 Calma 9 Este 0 967.6 0.9 43
2017-08-05 09:00:00 27.3 0 Calma 6 Sudeste 0 967.4 0.4 46
2017-08-05 08:00:00 24.4 0 Calma 6 Nordeste 0 967 0 48
2017-08-05 07:00:00 25.3 0 Calma 3 Oeste 0 966.7 -0.5 48
2017-08-05 06:00:00 26.1 0 Calma 3 Nordeste 0 967 -0.4 45
2017-08-05 05:00:00 28 0 Calma 9 Sudoeste 0 967 -0.7 43
2017-08-05 04:00:00 29.6 4 Oeste 10 Oeste 0 967.2 -0.4 42
2017-08-05 03:00:00 29.5 3 Oeste 7 Sudoeste 0 967.4 0.1 41
2017-08-05 02:00:00 30.1 0 Calma 9 Oeste 0 967.7 0.6 39
2017-08-05 01:00:00 31.5 7 Noroeste 10 Noroeste 0 967.6 1.1 39
2017-08-05 00:00:00 32.6 4 Oeste 8 Oeste 0 967.3 1.3 37
2017-08-04 23:00:00 33.6 3 Oeste 12 Oeste 0 967.1 1.6 35
2017-08-04 22:00:00 35.8 0 Calma 15 Sur 0 966.5 1.1 32
2017-08-04 21:00:00 38.6 7 Sur 21 Sudeste 0 966 0.4 30
2017-08-04 20:00:00 41.6 11 Sudeste 24 Sur 0 965.5 -0.5 27
2017-08-04 19:00:00 43 10 Sudeste 26 Sudeste 0 965.4 -- 26
2017-08-04 18:00:00 44.1 11 Sudeste 25 Sudeste 0 965.6 -1.4 26
2017-08-04 17:00:00 44.2 2 Noroeste 13 Noroeste 0 966 -1.7 25
2017-08-04 16:00:00 -- 8 Noroeste 17 Oeste 0 -- -- --
2017-08-04 15:00:00 42.8 5 Oeste 17 Oeste 0 967 -1.6 27
2017-08-04 14:00:00 41.8 3 Oeste 14 Oeste 0 967.7 -1 28
2017-08-04 13:00:00 40.5 0 Calma 12 Nordeste 0 968.2 -0.5 31
2017-08-04 12:00:00 38 0 Calma 6 Nordeste 0 968.6 -0.1 34
2017-08-04 11:00:00 34.5 0 Calma 4 Este 0 968.7 0.4 38
2017-08-04 10:00:00 29 0 Calma 6 Este 0 968.7 0.5 41
2017-08-04 09:00:00 24.3 0 Calma 3 Este 0 968.7 0.7 44
2017-08-04 08:00:00 21.4 0 Calma 2 Sudeste 0 968.3 0.4 46
2017-08-04 07:00:00 22.1 0 Calma 0 Calma 0 968.2 0.3 44
2017-08-04 06:00:00 23.2 0 Calma 0 Calma 0 968 -0.2 43
2017-08-04 05:00:00 24.2 0 Calma 5 Nordeste 0 967.9 -0.5 41
2017-08-04 04:00:00 25.2 0 Calma 4 Nordeste 0 967.9 -0.8 39
2017-08-04 03:00:00 26.7 0 Calma 6 Nordeste 0 968.2 -0.5 37
2017-08-04 02:00:00 28.8 0 Calma 6 Norte 0 968.4 0.3 35
2017-08-04 01:00:00 30.3 0 Calma 5 Sudoeste 0 968.7 1 33
2017-08-04 00:00:00 31.3 0 Calma 7 Oeste 0 968.7 1.3 30
2017-08-03 23:00:00 33.8 4 Oeste 10 Noroeste 0 968.1 0.9 28
2017-08-03 22:00:00 37.5 0 Calma 6 Noroeste 0 967.7 0.5 27
2017-08-03 21:00:00 38.9 0 Calma 15 Noroeste 0 967.4 -0.1 25
2017-08-03 20:00:00 41.2 4 Noroeste 19 Noroeste 0 967.2 -0.6 25
2017-08-03 19:00:00 41 6 Noroeste 21 Noroeste 0 967.2 -1 26
2017-08-03 18:00:00 41.3 5 Nordeste 17 Nordeste 0 967.5 -1 26
2017-08-03 17:00:00 41.2 4 Noroeste 23 Noroeste 0 967.8 -1.5 26
2017-08-03 16:00:00 40.6 0 Calma 20 Noroeste 0 968.2 -1.7 27
2017-08-03 15:00:00 40.2 8 Noroeste 20 Noroeste 0 968.5 -1.9 29
2017-08-03 14:00:00 39.9 2 Nordeste 17 Norte 0 969.3 -1.2 31
2017-08-03 13:00:00 38.1 4 Nordeste 12 Este 0 969.9 -0.4 33
2017-08-03 12:00:00 35.5 2 Nordeste 12 Este 0 970.4 0.2 36
2017-08-03 11:00:00 31.7 0 Calma 5 Este 0 970.5 0.5 41
2017-08-03 10:00:00 27.5 0 Calma 5 Sudeste 0 970.3 0.4 45
2017-08-03 09:00:00 22.6 0 Calma 4 Noroeste 0 970.2 0.8 48
2017-08-03 08:00:00 20.7 2 Noroeste 6 Noroeste 0 970 0.3 51
2017-08-03 07:00:00 19.6 2 Norte 9 Noroeste 0 969.9 0.1 50
2017-08-03 06:00:00 21.7 0 Calma 8 Nordeste 0 969.4 -0.6 47
2017-08-03 05:00:00 22.4 4 Nordeste 8 Nordeste 0 969.7 -0.6 45
2017-08-03 04:00:00 24.2 0 Calma 8 Nordeste 0 969.8 -0.4 44
2017-08-03 03:00:00 26.1 5 Nordeste 10 Nordeste 0 970 0.3 42
2017-08-03 02:00:00 26.5 0 Calma 6 Nordeste 0 970.3 0.9 39
2017-08-03 01:00:00 28 0 Calma 5 Oeste 0 970.2 1.7 38
2017-08-03 00:00:00 29.5 2 Oeste 5 Noroeste 0 969.7 1.8 34
2017-08-02 23:00:00 30.9 0 Calma 12 Noroeste 0 969.4 2.1 33
2017-08-02 22:00:00 33.8 2 Norte 10 Noroeste 0 968.5 1.2 31
2017-08-02 21:00:00 36.2 7 Noroeste 21 Noroeste 0 967.9 0.5 30
2017-08-02 20:00:00 38.3 6 Noroeste 26 Noroeste 0 967.3 -0.2 29
2017-08-02 19:00:00 39.4 5 Noroeste 25 Noroeste 0 967.3 -0.7 29
2017-08-02 18:00:00 39 5 Nordeste 22 Sudoeste 0 967.4 -0.9 30
2017-08-02 17:00:00 38.5 3 Noroeste 22 Sudoeste 0 967.5 -1.2 30
2017-08-02 16:00:00 38.3 4 Este 16 Nordeste 0 968 -1.2 30
2017-08-02 15:00:00 37.6 3 Noroeste 16 Noroeste 0 968.3 -1 31
2017-08-02 14:00:00 36.3 4 Oeste 14 Oeste 0 968.7 -0.5 34
2017-08-02 13:00:00 35.1 3 Sur 13 Nordeste 0 969.2 0 37
2017-08-02 12:00:00 32.7 2 Este 9 Nordeste 0 969.3 0.1 41
2017-08-02 11:00:00 30 0 Calma -- -- -- 969.2 0.2 45
2017-08-02 10:00:00 25.7 0 Calma 6 Este 0 969.2 0.6 52
2017-08-02 09:00:00 21.1 0 Calma 4 Este 0 969.2 0.7 56
2017-08-02 08:00:00 18.6 0 Calma 5 Nordeste 0 969 0.3 62
2017-08-02 07:00:00 18.4 0 Calma 7 Noroeste 0 968.6 -0.3 59
2017-08-02 06:00:00 19.2 0 Calma 7 Oeste 0 968.5 -0.7 58
2017-08-02 05:00:00 20.7 0 Calma 8 Noroeste 0 968.7 -0.9 55
2017-08-02 04:00:00 21 0 Calma 6 Nordeste 0 968.9 -0.7 53
2017-08-02 03:00:00 22.2 2 Noroeste 9 Noroeste 0 969.2 0.1 51
2017-08-02 02:00:00 24.1 0 Calma 6 Nordeste 0 969.6 0.7 48
2017-08-02 01:00:00 24.7 0 Calma 10 Noroeste 0 969.6 1.4 46
2017-08-02 00:00:00 26.4 0 Calma 2 Oeste 0 969.1 1.8 44
2017-08-01 23:00:00 27.6 0 Calma 4 Oeste 0 968.9 2.1 44
2017-08-01 22:00:00 29.1 3 Oeste 22 Oeste 0 968.2 1.9 42
2017-08-01 21:00:00 30.5 10 Oeste 22 Noroeste 0 967.3 0.7 42
2017-08-01 20:00:00 32.1 9 Noroeste 24 Noroeste 0 966.8 0.3 43
2017-08-01 19:00:00 32.5 14 Noroeste 29 Noroeste 0 966.3 0 42
2017-08-01 18:00:00 34 7 Oeste 19 Noroeste 0 966.6 0.3 41
2017-08-01 17:00:00 33.1 10 Noroeste 27 Oeste 0 966.5 -0.2 42
2017-08-01 16:00:00 33.6 7 Oeste 28 Oeste 0 966.3 -0.5 40
2017-08-01 15:00:00 33.2 3 Norte 19 Noroeste 0 966.3 -0.5 40
2017-08-01 14:00:00 32.2 6 Noroeste 16 Oeste 0 966.7 0.6 41
2017-08-01 13:00:00 30.8 5 Nordeste 17 Nordeste 0 966.8 0.2 45
2017-08-01 12:00:00 29.5 3 Norte 12 Nordeste 0 966.8 1.1 45
2017-08-01 11:00:00 26 8 Este 13 Este 0 966.1 0.9 49
2017-08-01 10:00:00 23.9 4 Noroeste 9 Noroeste 0 966.6 1.6 52
2017-08-01 09:00:00 20.1 0 Calma 7 Oeste 0 965.7 0.8 54
2017-08-01 08:00:00 19.6 0 Calma 12 Este 0 965.2 0.3 53
2017-08-01 07:00:00 20.6 2 Noroeste 6 Noroeste 0 965 0.2 51
2017-08-01 06:00:00 22 3 Nordeste 8 Nordeste 0 964.9 0.2 48
2017-08-01 05:00:00 23.4 3 Nordeste 10 Norte 0 964.9 0.1 47
2017-08-01 04:00:00 24.1 2 Norte 11 Norte 0 964.8 0.4 46
2017-08-01 03:00:00 24.1 0 Calma 9 Noroeste 0 964.7 0.1 44
2017-08-01 02:00:00 26.2 0 Calma 5 Oeste 0 964.8 0.5 43
2017-08-01 01:00:00 26.6 0 Calma 4 Nordeste 0 964.4 1 42
2017-08-01 00:00:00 27.5 0 Calma 13 Sudoeste 0 964.6 2.3 40
2017-07-31 23:00:00 29.5 6 Noroeste 26 Oeste 0 964.3 2.9 39
2017-07-31 22:00:00 31.4 11 Oeste 27 Noroeste 0 963.4 2.1 37
2017-07-31 21:00:00 34.2 12 Noroeste 28 Oeste 0 962.3 0.8 38
2017-07-31 20:00:00 36.2 18 Noroeste 31 Noroeste 0 961.4 -0.4 38
2017-07-31 19:00:00 38 8 Noroeste 24 Noroeste 0 961.3 -1 37
2017-07-31 18:00:00 38.7 7 Noroeste 24 Oeste 0 961.5 -1.4 35
2017-07-31 17:00:00 38.5 6 Noroeste 23 Oeste 0 961.8 -1.2 35
2017-07-31 16:00:00 38.4 7 Noroeste 21 Norte 0 962.3 -1.2 34
2017-07-31 15:00:00 37.6 4 Noroeste 22 Noroeste 0 962.9 -0.9 35
2017-07-31 14:00:00 36.3 7 Noroeste 18 Noroeste 0 963 -0.6 35
2017-07-31 13:00:00 35.5 2 Noroeste 14 Noroeste 0 963.5 -0.3 41
2017-07-31 12:00:00 33.8 0 Calma 11 Oeste 0 963.8 0.3 44
2017-07-31 11:00:00 31.5 0 Calma 10 Este 0 963.6 0.3 48
2017-07-31 10:00:00 28.5 6 Este 12 Este 0 963.8 0.9 52
2017-07-31 09:00:00 25.1 0 Calma 0 Calma 0 963.5 0.6 56
2017-07-31 08:00:00 22.8 0 Calma 5 Nordeste 0 963.3 0.1 60
2017-07-31 07:00:00 22.5 3 Nordeste 5 Nordeste 0 962.9 -0.3 59
2017-07-31 06:00:00 23.8 0 Calma 6 Nordeste 0 962.9 -0.9 55
2017-07-31 05:00:00 24.7 0 Calma 3 Oeste 0 963.2 -0.8 52
2017-07-31 04:00:00 27.1 0 Calma 7 Nordeste 0 963.2 -0.9 50
2017-07-31 03:00:00 26 0 Calma 3 Oeste 0 963.8 -0.3 50
2017-07-31 02:00:00 28.3 0 Calma 5 Noroeste 0 964 -0.1 48
2017-07-31 01:00:00 30 0 Calma 13 Noroeste 0 964.1 0.8 46
2017-07-31 00:00:00 31.6 7 Noroeste 12 Noroeste 0 964.1 1.3 43
2017-07-30 23:00:00 33.4 0 Calma 8 Sudeste 0 964.1 1.6 39
2017-07-30 22:00:00 35.3 3 Sudeste 12 Sudeste 0 963.3 0.8 36
2017-07-30 21:00:00 37.7 4 Sur 17 Sudeste 0 962.8 -0.1 32
2017-07-30 20:00:00 39.6 8 Sudeste 23 Sudeste 0 962.5 -0.8 31
2017-07-30 19:00:00 40.8 11 Sudeste 24 Sudeste 0 962.5 -1.4 31
2017-07-30 18:00:00 41.3 13 Sudeste 26 Sudeste 0 962.9 -1.6 30
2017-07-30 17:00:00 41.4 11 Sudeste 30 Sudeste 0 963.3 -1.6 30
2017-07-30 16:00:00 41.5 10 Sudeste 23 Sur 0 963.9 -1.4 30
2017-07-30 15:00:00 41.3 6 Sudeste 24 Sudoeste 0 964.5 -1.3 30
2017-07-30 14:00:00 39.8 9 Sudeste 28 Sudeste 0 964.9 -1 30
2017-07-30 13:00:00 39.4 12 Sur 29 Sur 0 965.3 -1 31
2017-07-30 12:00:00 37.9 0 Calma 11 Sur 0 965.8 -0.7 34
2017-07-30 11:00:00 32.7 0 Calma 6 Sudeste 0 965.9 -0.6 38
2017-07-30 10:00:00 29.5 0 Calma 6 Este 0 966.3 0 42
2017-07-30 09:00:00 25.8 0 Calma 7 Oeste 0 966.5 0.1 45
2017-07-30 08:00:00 22.1 0 Calma 7 Noroeste 0 966.5 -0.1 47
2017-07-30 07:00:00 21.6 0 Calma 5 Noroeste 0 966.3 -0.3 47
2017-07-30 06:00:00 23.6 0 Calma 7 Noroeste 0 966.4 -0.9 44
2017-07-30 05:00:00 24.1 0 Calma 9 Oeste 0 966.6 -1.3 43
2017-07-30 04:00:00 25.5 2 Nordeste 9 Nordeste 0 966.6 -1.6 42
2017-07-30 03:00:00 25.9 0 Calma 7 Nordeste 0 967.3 -0.9 40
2017-07-30 02:00:00 28.6 0 Calma 4 Norte 0 967.9 0.1 37
2017-07-30 01:00:00 29.8 0 Calma 5 Noroeste 0 968.2 1 35
2017-07-30 00:00:00 32 0 Calma 7 Nordeste 0 968.2 1.2 34
2017-07-29 23:00:00 32.8 0 Calma 8 Oeste 0 967.8 0.9 32
2017-07-29 22:00:00 34.9 3 Noroeste 15 Oeste 0 967.2 0.4 30
2017-07-29 21:00:00 37.8 9 Noroeste 22 Oeste 0 967 0 28
2017-07-29 20:00:00 40 13 Noroeste 24 Noroeste 0 966.9 -0.3 28
2017-07-29 19:00:00 41.1 12 Noroeste 27 Noroeste 0 966.8 -0.7 26
2017-07-29 18:00:00 41.8 8 Noroeste 21 Oeste 0 967 -0.8 25
2017-07-29 17:00:00 41.6 4 Oeste 26 Noroeste 0 967.2 -1 25
2017-07-29 16:00:00 42.4 6 Noroeste 18 Sur 0 967.5 -1.3 25
2017-07-29 15:00:00 41.8 3 Sur 18 Sudeste 0 967.8 -1.2 25
2017-07-29 14:00:00 40.4 0 Calma 12 Sudoeste 0 968.2 -0.8 27
2017-07-29 13:00:00 38.3 0 Calma 11 Sur 0 968.8 -0.4 30
2017-07-29 12:00:00 36.3 2 Sur 8 Sur 0 969 -0.2 31
2017-07-29 11:00:00 32.6 0 Calma 5 Este 0 969 0.2 37
2017-07-29 10:00:00 28.2 0 Calma 3 Sudeste 0 969.2 0.6 41
2017-07-29 09:00:00 24 0 Calma 4 Oeste 0 969.2 0.9 46
2017-07-29 08:00:00 21.1 0 Calma 6 Oeste 0 968.8 0.8 47
2017-07-29 07:00:00 20.7 0 Calma 0 Calma 0 968.6 0.4 46
2017-07-29 06:00:00 21.7 0 Calma 4 Noroeste 0 968.3 -0.1 43
2017-07-29 05:00:00 22.9 0 Calma 2 Este 0 968 -0.6 43
2017-07-29 04:00:00 23.9 0 Calma 4 Nordeste 0 968.2 -0.6 40
2017-07-29 03:00:00 25.3 0 Calma 6 Nordeste 0 968.4 0 38
2017-07-29 02:00:00 27.3 3 Nordeste 10 Nordeste 0 968.6 0.7 35
2017-07-29 01:00:00 29.3 0 Calma 11 Noroeste 0 968.8 1.4 32
2017-07-29 00:00:00 31.7 4 Noroeste 11 Noroeste 0 968.4 1.5 31
2017-07-28 23:00:00 32.3 0 Calma 7 Sur 0 967.9 1.5 30
2017-07-28 22:00:00 34.9 0 Calma 20 Oeste 0 967.4 1.1 27
2017-07-28 21:00:00 38.3 11 Noroeste 23 Oeste 0 966.9 0.4 24
2017-07-28 20:00:00 41 6 Noroeste 19 Noroeste 0 966.4 -0.2 23
2017-07-28 19:00:00 41.5 7 Noroeste 22 Noroeste 0 966.3 -0.6 22
2017-07-28 18:00:00 42 6 Norte 24 Noroeste 0 966.5 -0.9 23
2017-07-28 17:00:00 42.6 10 Oeste 26 Noroeste 0 966.6 -1.3 23
2017-07-28 16:00:00 41.4 4 Oeste 22 Noroeste 0 966.9 -1.2 24
2017-07-28 15:00:00 39.9 10 Nordeste 20 Nordeste 0 967.4 -0.9 25
2017-07-28 14:00:00 39.9 7 Oeste 20 Oeste 0 967.9 -0.4 27
2017-07-28 13:00:00 38.9 3 Noroeste 12 Noroeste 0 968.1 -0.3 31
2017-07-28 12:00:00 36.6 3 Este 11 Sudeste 0 968.3 0 32
2017-07-28 11:00:00 33.1 4 Nordeste 8 Nordeste 0 968.3 0.4 40
2017-07-28 10:00:00 28.4 0 Calma 5 Sudeste 0 968.4 0.6 53
2017-07-28 09:00:00 24.4 0 Calma 2 Este 0 968.3 0.6 61
2017-07-28 08:00:00 21.3 0 Calma 0 Calma 0 967.9 0.4 68
2017-07-28 07:00:00 22.2 0 Calma 5 Noroeste 0 967.8 0.2 67
2017-07-28 06:00:00 22.7 0 Calma 0 Calma 0 967.7 -0.1 65
2017-07-28 05:00:00 23.7 0 Calma 2 Nordeste 0 967.5 -0.3 62
2017-07-28 04:00:00 25.2 0 Calma 4 Oeste 0 967.6 0 58
2017-07-28 03:00:00 25.8 2 Oeste 8 Nordeste 0 967.8 0.5 56
2017-07-28 02:00:00 26.9 0 Calma 5 Oeste 0 967.8 0.7 55
2017-07-28 01:00:00 27.2 0 Calma 10 Noroeste 0 967.6 1.1 50
2017-07-28 00:00:00 29.5 2 Oeste 9 Sudoeste 0 967.3 1.4 48
2017-07-27 23:00:00 30.5 0 Calma 9 Sur 0 967.1 1.6 45
2017-07-27 22:00:00 32.6 0 Calma 9 Sur 0 966.5 1.2 41
2017-07-27 21:00:00 34.8 4 Sur 18 Sudeste 0 965.9 0.2 37
2017-07-27 20:00:00 36.8 8 Sudeste 23 Sudeste 0 965.5 -0.6 35
2017-07-27 19:00:00 38 13 Sudeste 24 Sudeste 0 965.3 -1 31
2017-07-27 18:00:00 38.4 12 Sudeste 27 Sudeste 0 965.7 -1.3 30
2017-07-27 17:00:00 39.5 10 Sudeste 27 Sudeste 0 966.1 -1.4 30
2017-07-27 16:00:00 39.5 10 Sudeste 23 Sudeste 0 966.3 -1.5 31
2017-07-27 15:00:00 38.5 10 Sudeste 25 Sudeste 0 967 -1.1 36
2017-07-27 14:00:00 37.1 6 Sudeste 21 Este 0 967.5 -0.8 37
2017-07-27 13:00:00 36 11 Sudeste 27 Sudeste 0 967.8 -0.6 41
2017-07-27 12:00:00 34.7 10 Sudeste 25 Sudeste 0 968.1 -0.2 46
2017-07-27 11:00:00 31.9 6 Sur 18 Sur 0 968.3 0.3 53
2017-07-27 10:00:00 28.1 0 Calma 8 Oeste 0 968.4 0.7 69
2017-07-27 09:00:00 24.3 0 Calma 4 Sudoeste 0 968.3 0.9 81
2017-07-27 08:00:00 21.8 0 Calma 4 Oeste 0 968 0.7 89
2017-07-27 07:00:00 22.6 0 Calma 5 Oeste 0 967.7 0.2 88
2017-07-27 06:00:00 23.3 3 Oeste 8 Sudoeste 0 967.4 -0.3 87
2017-07-27 05:00:00 24.1 2 Oeste 7 Sudoeste 0 967.3 -0.3 84
2017-07-27 04:00:00 24.7 3 Sur 12 Sur 0 967.5 0 80
2017-07-27 03:00:00 24.6 3 Sudoeste 11 Sudoeste 0 967.7 0.4 81
2017-07-27 02:00:00 25.8 3 Sudoeste 12 Sudoeste 0 967.6 0.6 77
2017-07-27 01:00:00 27.1 0 Calma 6 Sudoeste 0 967.5 1.2 68
2017-07-27 00:00:00 28.7 2 Oeste 6 Oeste 0 967.3 1.5 59
2017-07-26 23:00:00 30.3 0 Calma 7 Sudoeste 0 967 1.4 50
2017-07-26 22:00:00 33 0 Calma 10 Noroeste 0 966.3 0.8 35
2017-07-26 21:00:00 35.4 5 Noroeste 16 Oeste 0 965.8 0.2 30
2017-07-26 20:00:00 36.9 4 Noroeste 19 Noroeste 0 965.6 -0.3 30
2017-07-26 19:00:00 38.2 6 Oeste 17 Noroeste 0 965.5 -0.8 27
2017-07-26 18:00:00 37.9 3 Norte 16 Nordeste 0 965.6 -0.9 28
2017-07-26 17:00:00 37.7 5 Nordeste 15 Nordeste 0 965.9 -1.3 30
2017-07-26 16:00:00 37.1 5 Nordeste 23 Nordeste 0 966.3 -1.3 33
2017-07-26 15:00:00 36.9 2 Sudoeste 14 Oeste 0 966.5 -1.2 37
2017-07-26 14:00:00 35.3 2 Este 17 Este 0 967.2 -0.5 44
2017-07-26 13:00:00 33.3 7 Sudeste 18 Sudeste 0 967.6 0 47
2017-07-26 12:00:00 31.6 7 Sudeste 18 Este 0 967.7 0.4 53
2017-07-26 11:00:00 29.9 5 Sudeste 14 Sudeste 0 967.7 1 62
2017-07-26 10:00:00 27.6 0 Calma 7 Sur 0 967.6 1.2 72
2017-07-26 09:00:00 24.7 0 Calma 6 Noroeste 0 967.3 1.2 85
2017-07-26 08:00:00 22.6 0 Calma 12 Sudeste 0 966.7 0.5 96
2017-07-26 07:00:00 22.7 0 Calma 3 Sur 0 966.4 0 94
2017-07-26 06:00:00 23.2 0 Calma 6 Sur 0 966.1 -0.5 93
2017-07-26 05:00:00 23.6 0 Calma 8 Sudoeste 0 966.2 -0.3 88
2017-07-26 04:00:00 24.3 0 Calma 9 Sudeste 0 966.4 0.2 85
2017-07-26 03:00:00 25.1 0 Calma 8 Sur 0 966.6 0.5 78
2017-07-26 02:00:00 25.8 0 Calma 7 Sur 0 966.5 1 73
2017-07-26 01:00:00 26.5 2 Oeste 7 Sudoeste 0 966.2 1.3 69
2017-07-26 00:00:00 27.3 0 Calma 8 Sur 0 966.1 1.8 68
2017-07-25 23:00:00 28.7 2 Sudoeste 10 Sur 0 965.5 1.3 63
2017-07-25 22:00:00 30.5 2 Sur 14 Sur 0 964.9 1.1 56
2017-07-25 21:00:00 32.6 6 Sur 15 Sudoeste 0 964.3 0.3 50
2017-07-25 20:00:00 35.2 6 Sur 23 Sur 0 964.2 -0.1 45
2017-07-25 19:00:00 36.5 14 Sudeste 31 Este 0.5 963.8 -1.1 43
2017-07-25 18:00:00 38 6 Sur 34 Sur 0 964 -1.5 41
2017-07-25 17:00:00 37.9 12 Sudeste 27 Sudeste 0 964.3 -1.8 42
2017-07-25 16:00:00 37.6 14 Sudeste 28 Este 0 964.9 -1.6 42
2017-07-25 15:00:00 36.8 14 Sudeste 32 Sudeste 0 965.5 -1.3 42
2017-07-25 14:00:00 37.1 13 Sudeste 26 Sudeste 0 966.1 -0.8 41
2017-07-25 13:00:00 36.5 10 Sudeste 21 Sudeste 0 966.5 -0.3 42
2017-07-25 12:00:00 34.6 5 Sudeste 13 Este 0 966.8 -0.1 43
2017-07-25 11:00:00 32.4 2 Este 7 Este 0 966.9 0.1 45
2017-07-25 10:00:00 29.2 0 Calma 5 Este 0 966.8 0.4 49
2017-07-25 09:00:00 24.8 0 Calma 3 Este 0 966.9 0.4 54
2017-07-25 08:00:00 21.6 0 Calma 0 Calma 0 966.8 0.1 59
2017-07-25 07:00:00 21.7 0 Calma 6 Noroeste 0 966.4 -0.7 57
2017-07-25 06:00:00 23 0 Calma 3 Noroeste 0 966.5 -1 54
2017-07-25 05:00:00 23.7 0 Calma 3 Oeste 0 966.7 -1.2 53
2017-07-25 04:00:00 25.2 0 Calma 8 Nordeste 0 967.1 -1.1 50
2017-07-25 03:00:00 26.4 0 Calma 3 Sudoeste 0 967.5 -0.7 48
2017-07-25 02:00:00 28.4 0 Calma 7 Nordeste 0 967.9 -0.1 45
2017-07-25 01:00:00 29.8 0 Calma 4 Oeste 0 968.2 0.8 44
2017-07-25 00:00:00 30.3 0 Calma 7 Oeste 0 968.2 1 42
2017-07-24 23:00:00 32.1 0 Calma 11 Oeste 0 968 0.9 39
2017-07-24 22:00:00 34.5 6 Noroeste 12 Noroeste 0 967.4 -0.1 34
2017-07-24 21:00:00 37 7 Oeste 22 Noroeste 0 967.2 -0.4 30
2017-07-24 20:00:00 38.5 11 Noroeste 26 Noroeste 0 967.1 -0.9 29
2017-07-24 19:00:00 38.8 13 Noroeste 29 Oeste 0 967.5 -1.1 29
2017-07-24 18:00:00 39.3 11 Oeste 29 Oeste 0 967.6 -1.3 29
2017-07-24 17:00:00 39.5 5 Oeste 28 Oeste 0 968 -1.3 29
2017-07-24 16:00:00 38.7 10 Oeste 24 Oeste 0 968.6 -1.2 29
2017-07-24 15:00:00 37.8 12 Oeste 25 Noroeste 0 968.9 -1.3 30
2017-07-24 14:00:00 36.9 7 Nordeste 20 Norte 0 969.3 -1.3 33
2017-07-24 13:00:00 36.2 5 Nordeste 14 Nordeste 0 969.8 -1 37
2017-07-24 12:00:00 33.3 0 Calma 9 Oeste 0 970.2 -0.6 41
2017-07-24 11:00:00 30.8 0 Calma 7 Sudeste 0 970.6 0.2 45
2017-07-24 10:00:00 27.9 0 Calma 3 Este 0 970.8 0.8 48
2017-07-24 09:00:00 23.4 0 Calma 0 Calma 0 970.8 0.9 53
2017-07-24 08:00:00 20.1 0 Calma 6 Norte 0 970.4 0.4 58
2017-07-24 07:00:00 20 0 Calma 4 Noroeste 0 970 -0.1 58
2017-07-24 06:00:00 20.7 0 Calma 6 Nordeste 0 969.9 -0.8 55
2017-07-24 05:00:00 21.3 2 Nordeste 6 Noroeste 0 970 -1.1 55
2017-07-24 04:00:00 23.2 0 Calma 12 Nordeste 0 970.1 -1 51
2017-07-24 03:00:00 22.6 2 Este 10 Este 0 970.7 -0.1 50
2017-07-24 02:00:00 25.9 0 Calma 8 Sur 0 971.1 1.2 47
2017-07-24 01:00:00 27.5 3 Oeste 9 Sudoeste 0 971.1 2 45
2017-07-24 00:00:00 28.3 0 Calma 9 Sur 0 970.8 2.1 42
2017-07-23 23:00:00 30.5 3 Oeste 13 Noroeste 0 969.9 1.6 35
2017-07-23 22:00:00 33 4 Noroeste 16 Noroeste 0 969.1 0.8 28
2017-07-23 21:00:00 35.8 7 Noroeste 22 Noroeste 0 968.7 0.4 26
2017-07-23 20:00:00 38.3 8 Noroeste 22 Noroeste 0 968.3 -0.4 26
2017-07-23 19:00:00 38.6 7 Noroeste 23 Oeste 0 968.3 -0.9 26
2017-07-23 18:00:00 38.8 6 Noroeste 22 Noroeste 0 968.3 -1.6 26
2017-07-23 17:00:00 38.2 10 Oeste 22 Oeste 0 968.7 -1.6 26
2017-07-23 16:00:00 37.5 0 Calma 18 Oeste 0 969.2 -1.2 27
2017-07-23 15:00:00 36.7 4 Nordeste 14 Oeste 0 969.9 -0.5 27
2017-07-23 14:00:00 35.9 0 Calma 15 Oeste 0 970.3 0 29
2017-07-23 13:00:00 33.9 0 Calma 12 Noroeste 0 970.4 0.1 35
2017-07-23 12:00:00 32.3 0 Calma 13 Nordeste 0 970.4 0.5 39
2017-07-23 11:00:00 30.1 2 Nordeste 11 Nordeste 0 970.3 0.7 45
2017-07-23 10:00:00 27 2 Este 6 Este 0 970.3 1 50
2017-07-23 09:00:00 23.1 0 Calma 4 Este 0 969.9 1 56
2017-07-23 08:00:00 20.3 0 Calma 8 Noroeste 0 969.6 0.8 61
2017-07-23 07:00:00 20.5 3 Oeste 8 Noroeste 0 969.3 0.6 59
2017-07-23 06:00:00 20.8 0 Calma 9 Nordeste 0 968.9 0 56
2017-07-23 05:00:00 22.5 2 Noroeste 9 Nordeste 0 968.8 -0.3 55
2017-07-23 04:00:00 23.3 6 Nordeste 11 Nordeste 0 968.7 -0.3 54
2017-07-23 03:00:00 23.8 0 Calma 10 Noroeste 0 968.9 0.3 52
2017-07-23 02:00:00 26.1 7 Noroeste 11 Noroeste 0 969.1 1.2 50
2017-07-23 01:00:00 26.8 3 Noroeste 10 Oeste 0 969 2.3 48
2017-07-23 00:00:00 27.4 0 Calma 8 Oeste 0 968.6 2.5 43
2017-07-22 23:00:00 29.3 4 Oeste 13 Noroeste 0 967.9 2.3 36
2017-07-22 22:00:00 31.6 0 Calma 13 Noroeste 0 966.7 1.3 34
2017-07-22 21:00:00 34 8 Noroeste -- -- -- 966.1 0.5 32
2017-07-22 20:00:00 35.8 7 Noroeste 21 Noroeste 0 965.6 -0.3 30
2017-07-22 19:00:00 36.2 12 Noroeste 28 Noroeste 0 965.4 -0.6 30
2017-07-22 18:00:00 36.4 3 Norte 22 Oeste 0 965.6 -0.8 29
2017-07-22 17:00:00 36.5 4 Norte 24 Noroeste 0 965.9 -1 28
2017-07-22 16:00:00 35.6 5 Noroeste 23 Oeste 0 966 -1.1 30
2017-07-22 15:00:00 34.2 4 Noroeste 20 Noroeste 0 966.4 -1.1 33
2017-07-22 14:00:00 33 0 Calma 13 Noroeste 0 966.9 -0.4 39
2017-07-22 13:00:00 30.2 3 Noroeste 17 Noroeste 0 967.1 -0.6 44
2017-07-22 12:00:00 28.4 4 Nordeste 10 Sudeste 0 967.5 0.3 48
2017-07-22 11:00:00 25.9 0 Calma 10 Este 0 967.3 0.3 53
2017-07-22 10:00:00 23.8 0 Calma 7 Este 0 967.7 1 58
2017-07-22 09:00:00 19.4 0 Calma 7 Nordeste 0 967.2 0.7 68
2017-07-22 08:00:00 16.8 4 Nordeste 9 Nordeste 0 967 0.7 79
2017-07-22 07:00:00 16.7 6 Nordeste 12 Nordeste 0 966.7 0.4 75
2017-07-22 06:00:00 17.3 8 Nordeste 11 Nordeste 0 966.5 0.3 64
2017-07-22 05:00:00 17.3 0 Calma 5 Este 0 966.3 0.2 65
2017-07-22 04:00:00 19.4 3 Nordeste 14 Noroeste 0 966.3 -0.1 59
2017-07-22 03:00:00 18.9 0 Calma 6 Nordeste 0 966.2 0 58
2017-07-22 02:00:00 20.7 4 Noroeste 8 Norte 0 966.1 0.2 55
2017-07-22 01:00:00 21.8 6 Noroeste 10 Noroeste 0 966.4 1 51
2017-07-22 00:00:00 23.6 7 Noroeste 12 Noroeste 0 966.2 1.4 47
2017-07-21 23:00:00 24.9 2 Noroeste 10 Noroeste 0 965.9 1.5 43
2017-07-21 22:00:00 26.4 2 Noroeste 18 Noroeste 0 965.4 1.1 42
2017-07-21 21:00:00 28.7 8 Noroeste 24 Noroeste 0 964.8 0.5 41
2017-07-21 20:00:00 30.7 9 Noroeste 27 Noroeste 0 964.4 -0.1 38
2017-07-21 19:00:00 32 10 Noroeste 32 Noroeste 0 964.3 -0.6 38
2017-07-21 18:00:00 32.8 8 Oeste 24 Norte 0 964.3 -1.1 37
2017-07-21 17:00:00 33 10 Noroeste 27 Noroeste 0 964.5 -1.1 37
2017-07-21 16:00:00 31.1 6 Norte 23 Sudoeste 0 964.9 -1.1 41
2017-07-21 15:00:00 31.1 9 Noroeste 27 Oeste 0 965.4 -0.8 42
2017-07-21 14:00:00 29.9 10 Noroeste 26 Noroeste 0 965.6 -0.5 44
2017-07-21 13:00:00 29.5 5 Oeste 22 Noroeste 0 966 -0.1 48
2017-07-21 12:00:00 28.4 3 Norte 15 Noroeste 0 966.2 0.2 53
2017-07-21 11:00:00 26.2 3 Noroeste 12 Nordeste 0 966.1 0.7 58
2017-07-21 10:00:00 23.8 4 Este 11 Este 0 966.1 0.9 61
2017-07-21 09:00:00 20.8 5 Nordeste 8 Nordeste 0 966 1.6 63
2017-07-21 08:00:00 18.7 0 Calma 5 Este 0 965.4 0.7 67
2017-07-21 07:00:00 18.3 0 Calma 5 Norte 0 965.2 0.4 65
2017-07-21 06:00:00 18.9 0 Calma 5 Norte 0 964.4 -0.6 61
2017-07-21 05:00:00 19.5 0 Calma 8 Nordeste 0 964.7 -0.3 56
2017-07-21 04:00:00 20.9 5 Nordeste 10 Norte 0 964.8 -0.3 55
2017-07-21 03:00:00 21 0 Calma 7 Nordeste 0 965 0.2 54
2017-07-21 02:00:00 21.5 0 Calma 4 Este 0 965 0.2 51
2017-07-21 01:00:00 22.8 0 Calma 6 Noroeste 0 965.1 0.7 48
2017-07-21 00:00:00 24.1 3 Noroeste 6 Noroeste 0 964.8 0.9 45
2017-07-20 23:00:00 25.5 0 Calma 20 Noroeste 0 964.8 1.2 44
2017-07-20 22:00:00 26.9 12 Oeste 23 Noroeste 0 964.4 0.9 41
2017-07-20 21:00:00 29.1 14 Oeste 27 Noroeste 0 963.9 0 41
2017-07-20 20:00:00 31.4 14 Noroeste 30 Noroeste 0 963.6 -0.7 41
2017-07-20 19:00:00 32.6 15 Noroeste 27 Noroeste 0 963.5 -1.2 40
2017-07-20 18:00:00 34.4 7 Noroeste 28 Oeste 0 963.9 -1.3 39
2017-07-20 17:00:00 33.8 8 Norte 23 Noroeste 0 964.3 -1.5 40
2017-07-20 16:00:00 33.9 10 Noroeste 24 Noroeste 0 964.7 -1.6 40
2017-07-20 15:00:00 32.6 8 Noroeste 24 Este 0 965.2 -1.6 43
2017-07-20 14:00:00 32.3 7 Noroeste 24 Noroeste 0 965.8 -1 42
2017-07-20 13:00:00 31.2 9 Noroeste 22 Noroeste 0 966.3 -0.8 47
2017-07-20 12:00:00 30.2 3 Noroeste 11 Oeste 0 966.8 -0.4 54
2017-07-20 11:00:00 27.7 4 Nordeste 15 Nordeste 0 966.8 -0.1 59
2017-07-20 10:00:00 26 4 Nordeste 11 Este 0 967.1 0.5 63
2017-07-20 09:00:00 23.7 3 Este 6 Este 0 967.2 0.8 64
2017-07-20 08:00:00 20.5 0 Calma 5 Oeste 0 966.9 0.4 71
2017-07-20 07:00:00 20.7 0 Calma 6 Nordeste 0 966.6 -0.2 71
2017-07-20 06:00:00 21.4 3 Norte 11 Norte 0 966.4 -0.6 67
2017-07-20 05:00:00 22.3 4 Nordeste 10 Nordeste 0 966.5 -0.8 63
2017-07-20 04:00:00 23.2 0 Calma 7 Noroeste 0 966.8 -0.6 62
2017-07-20 03:00:00 24.5 0 Calma 10 Oeste 0 967 -0.4 59
2017-07-20 02:00:00 25.2 3 Oeste 9 Oeste 0 967.3 0.6 54
2017-07-20 01:00:00 25.4 0 Calma 6 Noroeste 0 967.4 1.1 47
2017-07-20 00:00:00 27.3 5 Noroeste 13 Oeste 0 967.4 1.7 44
2017-07-19 23:00:00 28.6 3 Oeste 20 Oeste 0 966.7 1.2 40
2017-07-19 22:00:00 29.9 7 Oeste 24 Noroeste 0 966.3 0.9 38
2017-07-19 21:00:00 32 13 Noroeste 29 Oeste 0 965.7 0.2 36
2017-07-19 20:00:00 34.3 15 Oeste 31 Oeste 0 965.5 -0.1 36
2017-07-19 19:00:00 36.2 14 Oeste 30 Oeste 0 965.4 -0.6 34
2017-07-19 18:00:00 36.3 11 Oeste 30 Noroeste 0 965.5 -0.9 32
2017-07-19 17:00:00 36.8 14 Noroeste 26 Oeste 0 965.6 -1.1 33
2017-07-19 16:00:00 35.8 12 Noroeste 24 Noroeste 0 966 -1.3 37
2017-07-19 15:00:00 35.2 6 Oeste 21 Oeste 0 966.4 -1.2 39
2017-07-19 14:00:00 34.8 5 Oeste 17 Oeste 0 966.7 -0.8 37
2017-07-19 13:00:00 33.5 5 Noroeste 15 Sudeste 0 967.3 -0.3 41
2017-07-19 12:00:00 31.8 5 Oeste 13 Este 0 967.6 0.3 46
2017-07-19 11:00:00 29.6 4 Este 12 Este 0 967.5 0.5 51
2017-07-19 10:00:00 28.6 0 Calma 8 Este 0 967.6 0.9 58
2017-07-19 09:00:00 25.5 0 Calma 4 Nordeste 0 967.3 0.9 70
2017-07-19 08:00:00 23.1 0 Calma 8 Nordeste 0 967 0.7 75
2017-07-19 07:00:00 23.1 3 Nordeste 7 Nordeste 0 966.7 0.5 75
2017-07-19 06:00:00 23.4 0 Calma 10 Noroeste 0 966.4 0.1 76
2017-07-19 05:00:00 24.2 7 Oeste 13 Noroeste 0 966.3 0.2 69
2017-07-19 04:00:00 25.4 6 Oeste 11 Oeste 0 966.2 0.2 64
2017-07-19 03:00:00 26.6 3 Oeste 18 Oeste 0 966.3 -0.1 55
2017-07-19 02:00:00 27.5 5 Oeste 40 Sur 0 966.1 0.1 46
2017-07-19 01:00:00 28.5 17 Sur 46 Sur 0 966 0.8 44
2017-07-19 00:00:00 28.8 14 Sur 33 Sudeste 0 966.4 1.6 43